sensor_id;sensor_type;location;lat;lon;timestamp;P1;durP1;ratioP1;P2;durP2;ratioP2
38499;SDS011;24269;51.894;4.622;2022-11-12T00:00:33;11.70;;;6.53;;
38499;SDS011;24269;51.894;4.622;2022-11-12T00:02:59;13.68;;;6.82;;
38499;SDS011;24269;51.894;4.622;2022-11-12T00:05:25;11.80;;;6.68;;
38499;SDS011;24269;51.894;4.622;2022-11-12T00:07:50;13.90;;;6.95;;
38499;SDS011;24269;51.894;4.622;2022-11-12T00:10:16;13.90;;;7.22;;
38499;SDS011;24269;51.894;4.622;2022-11-12T00:12:42;14.27;;;6.97;;
38499;SDS011;24269;51.894;4.622;2022-11-12T00:15:08;13.20;;;6.82;;
38499;SDS011;24269;51.894;4.622;2022-11-12T00:17:35;14.55;;;7.50;;
38499;SDS011;24269;51.894;4.622;2022-11-12T00:20:00;15.07;;;7.15;;
38499;SDS011;24269;51.894;4.622;2022-11-12T00:22:26;15.10;;;7.28;;
38499;SDS011;24269;51.894;4.622;2022-11-12T00:24:52;13.80;;;7.35;;
38499;SDS011;24269;51.894;4.622;2022-11-12T00:27:17;16.50;;;7.13;;
38499;SDS011;24269;51.894;4.622;2022-11-12T00:29:43;16.27;;;7.65;;
38499;SDS011;24269;51.894;4.622;2022-11-12T00:32:09;12.88;;;6.35;;
38499;SDS011;24269;51.894;4.622;2022-11-12T00:34:35;12.23;;;6.18;;
38499;SDS011;24269;51.894;4.622;2022-11-12T00:37:01;9.57;;;5.00;;
38499;SDS011;24269;51.894;4.622;2022-11-12T00:39:27;9.88;;;5.05;;
38499;SDS011;24269;51.894;4.622;2022-11-12T00:41:53;9.75;;;5.53;;
38499;SDS011;24269;51.894;4.622;2022-11-12T00:44:19;8.57;;;4.65;;
38499;SDS011;24269;51.894;4.622;2022-11-12T00:46:45;9.38;;;4.40;;
38499;SDS011;24269;51.894;4.622;2022-11-12T00:49:11;9.95;;;4.65;;
38499;SDS011;24269;51.894;4.622;2022-11-12T00:51:36;10.15;;;4.43;;
38499;SDS011;24269;51.894;4.622;2022-11-12T00:54:02;10.02;;;4.95;;
38499;SDS011;24269;51.894;4.622;2022-11-12T00:56:29;9.38;;;4.85;;
38499;SDS011;24269;51.894;4.622;2022-11-12T00:58:54;7.97;;;4.65;;
38499;SDS011;24269;51.894;4.622;2022-11-12T01:01:21;8.13;;;4.40;;
38499;SDS011;24269;51.894;4.622;2022-11-12T01:03:47;9.05;;;4.43;;
38499;SDS011;24269;51.894;4.622;2022-11-12T01:06:14;9.15;;;4.68;;
38499;SDS011;24269;51.894;4.622;2022-11-12T01:08:41;8.40;;;4.40;;
38499;SDS011;24269;51.894;4.622;2022-11-12T01:11:08;7.35;;;4.25;;
38499;SDS011;24269;51.894;4.622;2022-11-12T01:13:34;10.50;;;5.22;;
38499;SDS011;24269;51.894;4.622;2022-11-12T01:16:07;10.43;;;5.60;;
38499;SDS011;24269;51.894;4.622;2022-11-12T01:18:35;10.98;;;5.18;;
38499;SDS011;24269;51.894;4.622;2022-11-12T01:21:05;12.32;;;5.75;;
38499;SDS011;24269;51.894;4.622;2022-11-12T01:23:31;11.32;;;5.88;;
38499;SDS011;24269;51.894;4.622;2022-11-12T01:25:58;10.48;;;5.32;;
38499;SDS011;24269;51.894;4.622;2022-11-12T01:28:28;10.80;;;5.45;;
38499;SDS011;24269;51.894;4.622;2022-11-12T01:30:54;12.85;;;6.72;;
38499;SDS011;24269;51.894;4.622;2022-11-12T01:33:19;10.88;;;5.97;;
38499;SDS011;24269;51.894;4.622;2022-11-12T01:35:45;15.20;;;6.70;;
38499;SDS011;24269;51.894;4.622;2022-11-12T01:38:11;11.82;;;6.25;;
38499;SDS011;24269;51.894;4.622;2022-11-12T01:40:36;10.85;;;6.15;;
38499;SDS011;24269;51.894;4.622;2022-11-12T01:43:02;14.73;;;6.10;;
38499;SDS011;24269;51.894;4.622;2022-11-12T01:45:28;11.20;;;6.13;;
38499;SDS011;24269;51.894;4.622;2022-11-12T01:47:53;13.80;;;7.10;;
38499;SDS011;24269;51.894;4.622;2022-11-12T01:50:22;13.05;;;6.85;;
38499;SDS011;24269;51.894;4.622;2022-11-12T01:52:53;12.60;;;6.85;;
38499;SDS011;24269;51.894;4.622;2022-11-12T01:55:31;13.32;;;6.72;;
38499;SDS011;24269;51.894;4.622;2022-11-12T02:00:33;12.85;;;6.03;;
38499;SDS011;24269;51.894;4.622;2022-11-12T02:02:59;13.65;;;6.82;;
38499;SDS011;24269;51.894;4.622;2022-11-12T02:05:27;14.40;;;6.57;;
38499;SDS011;24269;51.894;4.622;2022-11-12T02:07:55;14.10;;;6.63;;
38499;SDS011;24269;51.894;4.622;2022-11-12T02:10:22;13.52;;;6.03;;
38499;SDS011;24269;51.894;4.622;2022-11-12T02:12:48;16.75;;;6.30;;
38499;SDS011;24269;51.894;4.622;2022-11-12T02:15:35;13.35;;;5.93;;
38499;SDS011;24269;51.894;4.622;2022-11-12T02:18:02;15.68;;;6.22;;
38499;SDS011;24269;51.894;4.622;2022-11-12T02:20:33;15.25;;;7.22;;
38499;SDS011;24269;51.894;4.622;2022-11-12T02:23:00;15.75;;;7.03;;
38499;SDS011;24269;51.894;4.622;2022-11-12T02:25:26;16.15;;;7.55;;
38499;SDS011;24269;51.894;4.622;2022-11-12T02:27:53;16.40;;;7.07;;
38499;SDS011;24269;51.894;4.622;2022-11-12T02:30:30;15.85;;;6.97;;
38499;SDS011;24269;51.894;4.622;2022-11-12T02:32:57;19.67;;;8.18;;
38499;SDS011;24269;51.894;4.622;2022-11-12T02:35:23;17.80;;;7.95;;
38499;SDS011;24269;51.894;4.622;2022-11-12T02:37:49;17.33;;;8.35;;
38499;SDS011;24269;51.894;4.622;2022-11-12T02:40:14;18.58;;;8.23;;
38499;SDS011;24269;51.894;4.622;2022-11-12T02:42:40;15.80;;;7.50;;
38499;SDS011;24269;51.894;4.622;2022-11-12T02:45:06;20.15;;;8.77;;
38499;SDS011;24269;51.894;4.622;2022-11-12T02:47:32;18.42;;;8.75;;
38499;SDS011;24269;51.894;4.622;2022-11-12T02:49:57;18.85;;;9.20;;
38499;SDS011;24269;51.894;4.622;2022-11-12T02:52:23;16.83;;;9.25;;
38499;SDS011;24269;51.894;4.622;2022-11-12T02:54:48;17.35;;;9.27;;
38499;SDS011;24269;51.894;4.622;2022-11-12T02:57:14;20.75;;;9.25;;
38499;SDS011;24269;51.894;4.622;2022-11-12T02:59:40;18.42;;;9.93;;
38499;SDS011;24269;51.894;4.622;2022-11-12T03:02:05;17.52;;;10.07;;
38499;SDS011;24269;51.894;4.622;2022-11-12T03:04:31;16.35;;;9.00;;
38499;SDS011;24269;51.894;4.622;2022-11-12T03:06:56;18.02;;;9.63;;
38499;SDS011;24269;51.894;4.622;2022-11-12T03:09:22;15.80;;;9.70;;
38499;SDS011;24269;51.894;4.622;2022-11-12T03:11:48;17.55;;;9.63;;
38499;SDS011;24269;51.894;4.622;2022-11-12T03:14:13;20.42;;;9.57;;
38499;SDS011;24269;51.894;4.622;2022-11-12T03:16:39;15.63;;;9.02;;
38499;SDS011;24269;51.894;4.622;2022-11-12T03:19:04;16.65;;;8.75;;
38499;SDS011;24269;51.894;4.622;2022-11-12T03:21:30;16.58;;;9.02;;
38499;SDS011;24269;51.894;4.622;2022-11-12T03:23:56;18.23;;;9.75;;
38499;SDS011;24269;51.894;4.622;2022-11-12T03:26:21;13.88;;;8.80;;
38499;SDS011;24269;51.894;4.622;2022-11-12T03:28:47;13.85;;;8.52;;
38499;SDS011;24269;51.894;4.622;2022-11-12T03:31:14;17.65;;;8.65;;
38499;SDS011;24269;51.894;4.622;2022-11-12T03:33:40;14.10;;;8.25;;
38499;SDS011;24269;51.894;4.622;2022-11-12T03:36:05;13.02;;;7.80;;
38499;SDS011;24269;51.894;4.622;2022-11-12T03:38:31;14.73;;;8.02;;
38499;SDS011;24269;51.894;4.622;2022-11-12T03:40:57;14.02;;;8.15;;
38499;SDS011;24269;51.894;4.622;2022-11-12T03:43:22;13.57;;;8.40;;
38499;SDS011;24269;51.894;4.622;2022-11-12T03:45:48;16.02;;;8.70;;
38499;SDS011;24269;51.894;4.622;2022-11-12T03:48:13;15.93;;;8.38;;
38499;SDS011;24269;51.894;4.622;2022-11-12T03:50:39;13.82;;;8.65;;
38499;SDS011;24269;51.894;4.622;2022-11-12T03:53:04;14.85;;;8.32;;
38499;SDS011;24269;51.894;4.622;2022-11-12T03:55:30;15.98;;;8.80;;
38499;SDS011;24269;51.894;4.622;2022-11-12T03:57:56;16.88;;;9.85;;
38499;SDS011;24269;51.894;4.622;2022-11-12T04:00:23;18.10;;;9.90;;
38499;SDS011;24269;51.894;4.622;2022-11-12T04:02:49;15.95;;;9.43;;
38499;SDS011;24269;51.894;4.622;2022-11-12T04:05:15;18.35;;;9.80;;
38499;SDS011;24269;51.894;4.622;2022-11-12T04:08:02;18.73;;;10.38;;
38499;SDS011;24269;51.894;4.622;2022-11-12T04:10:48;18.05;;;9.45;;
38499;SDS011;24269;51.894;4.622;2022-11-12T04:13:13;18.35;;;9.90;;
38499;SDS011;24269;51.894;4.622;2022-11-12T04:15:51;15.80;;;9.48;;
38499;SDS011;24269;51.894;4.622;2022-11-12T04:18:44;17.63;;;9.73;;
38499;SDS011;24269;51.894;4.622;2022-11-12T04:21:31;16.27;;;9.52;;
38499;SDS011;24269;51.894;4.622;2022-11-12T04:29:58;14.85;;;9.02;;
38499;SDS011;24269;51.894;4.622;2022-11-12T04:32:50;16.85;;;9.30;;
38499;SDS011;24269;51.894;4.622;2022-11-12T04:35:19;16.08;;;9.23;;
38499;SDS011;24269;51.894;4.622;2022-11-12T04:37:45;15.45;;;8.95;;
38499;SDS011;24269;51.894;4.622;2022-11-12T04:40:16;16.77;;;9.38;;
38499;SDS011;24269;51.894;4.622;2022-11-12T04:43:02;15.88;;;9.73;;
38499;SDS011;24269;51.894;4.622;2022-11-12T04:45:49;17.73;;;9.90;;
38499;SDS011;24269;51.894;4.622;2022-11-12T04:48:17;16.95;;;9.23;;
38499;SDS011;24269;51.894;4.622;2022-11-12T04:50:44;16.30;;;8.90;;
38499;SDS011;24269;51.894;4.622;2022-11-12T04:53:12;17.73;;;10.07;;
38499;SDS011;24269;51.894;4.622;2022-11-12T04:55:38;18.27;;;9.35;;
38499;SDS011;24269;51.894;4.622;2022-11-12T04:58:04;15.75;;;9.32;;
38499;SDS011;24269;51.894;4.622;2022-11-12T05:00:29;16.48;;;9.50;;
38499;SDS011;24269;51.894;4.622;2022-11-12T05:02:55;20.50;;;10.07;;
38499;SDS011;24269;51.894;4.622;2022-11-12T05:05:21;16.33;;;9.23;;
38499;SDS011;24269;51.894;4.622;2022-11-12T05:07:47;16.92;;;10.27;;
38499;SDS011;24269;51.894;4.622;2022-11-12T05:10:12;17.83;;;9.18;;
38499;SDS011;24269;51.894;4.622;2022-11-12T05:12:38;15.65;;;9.00;;
38499;SDS011;24269;51.894;4.622;2022-11-12T05:15:04;15.00;;;9.07;;
38499;SDS011;24269;51.894;4.622;2022-11-12T05:17:30;18.35;;;10.25;;
38499;SDS011;24269;51.894;4.622;2022-11-12T05:19:56;16.33;;;9.15;;
38499;SDS011;24269;51.894;4.622;2022-11-12T05:22:21;17.45;;;9.75;;
38499;SDS011;24269;51.894;4.622;2022-11-12T05:24:47;16.27;;;9.90;;
38499;SDS011;24269;51.894;4.622;2022-11-12T05:27:14;17.98;;;9.65;;
38499;SDS011;24269;51.894;4.622;2022-11-12T05:29:41;17.58;;;9.50;;
38499;SDS011;24269;51.894;4.622;2022-11-12T05:32:07;17.20;;;9.65;;
38499;SDS011;24269;51.894;4.622;2022-11-12T05:34:35;19.77;;;11.07;;
38499;SDS011;24269;51.894;4.622;2022-11-12T05:37:02;16.70;;;10.15;;
38499;SDS011;24269;51.894;4.622;2022-11-12T05:42:51;19.60;;;9.93;;
38499;SDS011;24269;51.894;4.622;2022-11-12T05:45:16;15.32;;;9.57;;
38499;SDS011;24269;51.894;4.622;2022-11-12T05:47:42;17.10;;;10.13;;
38499;SDS011;24269;51.894;4.622;2022-11-12T05:50:08;16.63;;;9.82;;
38499;SDS011;24269;51.894;4.622;2022-11-12T05:52:34;15.73;;;9.40;;
38499;SDS011;24269;51.894;4.622;2022-11-12T05:55:00;16.58;;;9.48;;
38499;SDS011;24269;51.894;4.622;2022-11-12T05:57:26;16.27;;;9.55;;
38499;SDS011;24269;51.894;4.622;2022-11-12T05:59:52;16.42;;;9.15;;
38499;SDS011;24269;51.894;4.622;2022-11-12T06:02:17;16.85;;;9.68;;
38499;SDS011;24269;51.894;4.622;2022-11-12T06:04:43;18.00;;;9.57;;
38499;SDS011;24269;51.894;4.622;2022-11-12T06:07:08;15.85;;;8.90;;
38499;SDS011;24269;51.894;4.622;2022-11-12T06:09:34;17.23;;;9.40;;
38499;SDS011;24269;51.894;4.622;2022-11-12T06:12:00;17.80;;;8.68;;
38499;SDS011;24269;51.894;4.622;2022-11-12T06:14:26;16.85;;;9.02;;
38499;SDS011;24269;51.894;4.622;2022-11-12T06:16:51;14.50;;;8.43;;
38499;SDS011;24269;51.894;4.622;2022-11-12T06:19:17;15.25;;;9.05;;
38499;SDS011;24269;51.894;4.622;2022-11-12T06:21:43;15.07;;;8.95;;
38499;SDS011;24269;51.894;4.622;2022-11-12T06:24:08;14.88;;;8.73;;
38499;SDS011;24269;51.894;4.622;2022-11-12T06:26:34;14.70;;;8.18;;
38499;SDS011;24269;51.894;4.622;2022-11-12T06:29:01;15.68;;;8.73;;
38499;SDS011;24269;51.894;4.622;2022-11-12T06:31:27;16.58;;;9.55;;
38499;SDS011;24269;51.894;4.622;2022-11-12T06:33:52;16.70;;;9.25;;
38499;SDS011;24269;51.894;4.622;2022-11-12T06:36:19;15.45;;;8.65;;
38499;SDS011;24269;51.894;4.622;2022-11-12T06:38:45;16.10;;;9.52;;
38499;SDS011;24269;51.894;4.622;2022-11-12T06:41:11;15.57;;;8.70;;
38499;SDS011;24269;51.894;4.622;2022-11-12T06:43:38;14.50;;;8.45;;
38499;SDS011;24269;51.894;4.622;2022-11-12T06:46:06;13.18;;;8.05;;
38499;SDS011;24269;51.894;4.622;2022-11-12T06:48:35;14.83;;;8.00;;
38499;SDS011;24269;51.894;4.622;2022-11-12T06:51:07;14.70;;;8.38;;
38499;SDS011;24269;51.894;4.622;2022-11-12T06:53:35;15.63;;;8.55;;
38499;SDS011;24269;51.894;4.622;2022-11-12T06:56:02;15.15;;;8.40;;
38499;SDS011;24269;51.894;4.622;2022-11-12T06:58:29;19.05;;;9.52;;
38499;SDS011;24269;51.894;4.622;2022-11-12T07:00:55;16.00;;;8.98;;
38499;SDS011;24269;51.894;4.622;2022-11-12T07:03:21;17.40;;;9.00;;
38499;SDS011;24269;51.894;4.622;2022-11-12T07:05:47;18.70;;;9.30;;
38499;SDS011;24269;51.894;4.622;2022-11-12T07:08:12;17.25;;;9.32;;
38499;SDS011;24269;51.894;4.622;2022-11-12T07:10:38;15.38;;;8.82;;
38499;SDS011;24269;51.894;4.622;2022-11-12T07:13:04;21.55;;;9.40;;
38499;SDS011;24269;51.894;4.622;2022-11-12T07:15:30;16.45;;;9.48;;
38499;SDS011;24269;51.894;4.622;2022-11-12T07:17:55;17.13;;;9.07;;
38499;SDS011;24269;51.894;4.622;2022-11-12T07:20:21;18.02;;;10.15;;
38499;SDS011;24269;51.894;4.622;2022-11-12T07:22:47;18.38;;;9.95;;
38499;SDS011;24269;51.894;4.622;2022-11-12T07:25:12;21.33;;;9.45;;
38499;SDS011;24269;51.894;4.622;2022-11-12T07:27:38;17.70;;;9.68;;
38499;SDS011;24269;51.894;4.622;2022-11-12T07:30:05;20.83;;;10.82;;
38499;SDS011;24269;51.894;4.622;2022-11-12T07:32:31;23.58;;;10.30;;
38499;SDS011;24269;51.894;4.622;2022-11-12T07:34:57;20.92;;;11.07;;
38499;SDS011;24269;51.894;4.622;2022-11-12T07:37:22;19.50;;;11.15;;
38499;SDS011;24269;51.894;4.622;2022-11-12T07:39:48;18.10;;;10.68;;
38499;SDS011;24269;51.894;4.622;2022-11-12T07:42:14;20.05;;;10.48;;
38499;SDS011;24269;51.894;4.622;2022-11-12T07:44:40;18.42;;;10.30;;
38499;SDS011;24269;51.894;4.622;2022-11-12T07:47:06;20.02;;;10.30;;
38499;SDS011;24269;51.894;4.622;2022-11-12T07:49:32;18.90;;;10.93;;
38499;SDS011;24269;51.894;4.622;2022-11-12T07:51:58;26.00;;;10.85;;
38499;SDS011;24269;51.894;4.622;2022-11-12T07:54:24;20.40;;;10.70;;
38499;SDS011;24269;51.894;4.622;2022-11-12T07:56:50;19.00;;;11.00;;
38499;SDS011;24269;51.894;4.622;2022-11-12T07:59:15;22.38;;;11.90;;
38499;SDS011;24269;51.894;4.622;2022-11-12T08:01:41;23.85;;;12.43;;
38499;SDS011;24269;51.894;4.622;2022-11-12T08:04:07;27.50;;;14.35;;
38499;SDS011;24269;51.894;4.622;2022-11-12T08:06:34;24.88;;;13.18;;
38499;SDS011;24269;51.894;4.622;2022-11-12T08:09:03;23.10;;;12.48;;
38499;SDS011;24269;51.894;4.622;2022-11-12T08:11:35;27.77;;;13.88;;
38499;SDS011;24269;51.894;4.622;2022-11-12T08:14:03;22.20;;;12.38;;
38499;SDS011;24269;51.894;4.622;2022-11-12T08:16:29;24.00;;;14.10;;
38499;SDS011;24269;51.894;4.622;2022-11-12T08:18:56;24.85;;;13.65;;
38499;SDS011;24269;51.894;4.622;2022-11-12T08:21:22;25.15;;;13.50;;
38499;SDS011;24269;51.894;4.622;2022-11-12T08:23:48;26.67;;;14.95;;
38499;SDS011;24269;51.894;4.622;2022-11-12T08:26:15;28.25;;;13.68;;
38499;SDS011;24269;51.894;4.622;2022-11-12T08:28:44;30.27;;;15.18;;
38499;SDS011;24269;51.894;4.622;2022-11-12T08:31:11;27.92;;;15.00;;
38499;SDS011;24269;51.894;4.622;2022-11-12T08:33:38;28.38;;;15.95;;
38499;SDS011;24269;51.894;4.622;2022-11-12T08:36:04;31.65;;;16.50;;
38499;SDS011;24269;51.894;4.622;2022-11-12T08:38:32;30.90;;;16.77;;
38499;SDS011;24269;51.894;4.622;2022-11-12T08:41:00;29.13;;;16.13;;
38499;SDS011;24269;51.894;4.622;2022-11-12T08:43:26;28.25;;;16.60;;
38499;SDS011;24269;51.894;4.622;2022-11-12T08:45:52;30.80;;;17.20;;
38499;SDS011;24269;51.894;4.622;2022-11-12T08:48:21;34.17;;;17.10;;
38499;SDS011;24269;51.894;4.622;2022-11-12T08:50:47;28.20;;;16.70;;
38499;SDS011;24269;51.894;4.622;2022-11-12T08:53:13;28.88;;;16.23;;
38499;SDS011;24269;51.894;4.622;2022-11-12T08:55:39;30.00;;;15.60;;
38499;SDS011;24269;51.894;4.622;2022-11-12T08:58:06;28.92;;;15.68;;
38499;SDS011;24269;51.894;4.622;2022-11-12T09:00:33;25.63;;;14.80;;
38499;SDS011;24269;51.894;4.622;2022-11-12T09:03:02;28.17;;;15.55;;
38499;SDS011;24269;51.894;4.622;2022-11-12T09:05:30;27.05;;;15.57;;
38499;SDS011;24269;51.894;4.622;2022-11-12T09:07:59;28.40;;;14.98;;
38499;SDS011;24269;51.894;4.622;2022-11-12T09:10:29;27.02;;;14.40;;
38499;SDS011;24269;51.894;4.622;2022-11-12T09:12:55;23.77;;;13.73;;
38499;SDS011;24269;51.894;4.622;2022-11-12T09:15:21;25.98;;;14.00;;
38499;SDS011;24269;51.894;4.622;2022-11-12T09:17:58;24.67;;;13.30;;
38499;SDS011;24269;51.894;4.622;2022-11-12T09:20:25;22.98;;;12.88;;
38499;SDS011;24269;51.894;4.622;2022-11-12T09:22:52;21.63;;;12.48;;
38499;SDS011;24269;51.894;4.622;2022-11-12T09:25:22;20.27;;;11.65;;
38499;SDS011;24269;51.894;4.622;2022-11-12T09:27:47;20.70;;;12.10;;
38499;SDS011;24269;51.894;4.622;2022-11-12T09:30:13;22.38;;;12.23;;
38499;SDS011;24269;51.894;4.622;2022-11-12T09:32:39;21.40;;;11.63;;
38499;SDS011;24269;51.894;4.622;2022-11-12T09:35:05;16.85;;;10.00;;
38499;SDS011;24269;51.894;4.622;2022-11-12T09:37:35;16.98;;;9.43;;
38499;SDS011;24269;51.894;4.622;2022-11-12T09:40:02;19.95;;;10.52;;
38499;SDS011;24269;51.894;4.622;2022-11-12T09:42:29;19.58;;;9.70;;
38499;SDS011;24269;51.894;4.622;2022-11-12T09:44:56;16.20;;;9.57;;
38499;SDS011;24269;51.894;4.622;2022-11-12T09:47:52;15.35;;;9.35;;
38499;SDS011;24269;51.894;4.622;2022-11-12T09:50:26;16.77;;;9.38;;
38499;SDS011;24269;51.894;4.622;2022-11-12T09:53:07;13.35;;;7.60;;
38499;SDS011;24269;51.894;4.622;2022-11-12T09:55:41;14.30;;;7.18;;
38499;SDS011;24269;51.894;4.622;2022-11-12T09:58:11;12.48;;;7.15;;
38499;SDS011;24269;51.894;4.622;2022-11-12T10:00:39;12.65;;;7.13;;
38499;SDS011;24269;51.894;4.622;2022-11-12T10:06:37;11.80;;;6.55;;
38499;SDS011;24269;51.894;4.622;2022-11-12T10:09:28;13.80;;;6.70;;
38499;SDS011;24269;51.894;4.622;2022-11-12T10:12:26;11.38;;;7.03;;
38499;SDS011;24269;51.894;4.622;2022-11-12T10:21:09;11.55;;;6.57;;
38499;SDS011;24269;51.894;4.622;2022-11-12T10:23:49;10.93;;;6.47;;
38499;SDS011;24269;51.894;4.622;2022-11-12T10:26:18;10.30;;;5.90;;
38499;SDS011;24269;51.894;4.622;2022-11-12T10:28:50;9.30;;;5.45;;
38499;SDS011;24269;51.894;4.622;2022-11-12T10:31:25;9.80;;;6.30;;
38499;SDS011;24269;51.894;4.622;2022-11-12T10:33:53;11.05;;;5.30;;
38499;SDS011;24269;51.894;4.622;2022-11-12T10:36:43;10.20;;;5.53;;
38499;SDS011;24269;51.894;4.622;2022-11-12T10:39:32;9.73;;;5.47;;
38499;SDS011;24269;51.894;4.622;2022-11-12T10:42:11;8.68;;;5.18;;
38499;SDS011;24269;51.894;4.622;2022-11-12T10:44:39;8.93;;;4.93;;
38499;SDS011;24269;51.894;4.622;2022-11-12T10:52:53;9.15;;;4.53;;
38499;SDS011;24269;51.894;4.622;2022-11-12T10:58:06;7.18;;;4.22;;
38499;SDS011;24269;51.894;4.622;2022-11-12T11:03:35;6.43;;;3.45;;
38499;SDS011;24269;51.894;4.622;2022-11-12T11:11:12;6.18;;;3.30;;
38499;SDS011;24269;51.894;4.622;2022-11-12T11:13:42;5.85;;;3.53;;
38499;SDS011;24269;51.894;4.622;2022-11-12T11:16:11;8.45;;;3.47;;
38499;SDS011;24269;51.894;4.622;2022-11-12T11:18:44;5.85;;;3.35;;
38499;SDS011;24269;51.894;4.622;2022-11-12T11:21:15;7.57;;;3.38;;
38499;SDS011;24269;51.894;4.622;2022-11-12T11:26:59;5.88;;;3.10;;
38499;SDS011;24269;51.894;4.622;2022-11-12T11:29:33;7.00;;;3.30;;
38499;SDS011;24269;51.894;4.622;2022-11-12T11:35:10;5.72;;;3.13;;
38499;SDS011;24269;51.894;4.622;2022-11-12T11:40:28;5.72;;;2.88;;
38499;SDS011;24269;51.894;4.622;2022-11-12T11:48:49;6.82;;;3.05;;
38499;SDS011;24269;51.894;4.622;2022-11-12T11:56:43;5.00;;;2.83;;
38499;SDS011;24269;51.894;4.622;2022-11-12T11:59:15;8.05;;;3.50;;
38499;SDS011;24269;51.894;4.622;2022-11-12T12:01:58;5.60;;;3.30;;
38499;SDS011;24269;51.894;4.622;2022-11-12T12:20:56;7.30;;;4.30;;
38499;SDS011;24269;51.894;4.622;2022-11-12T12:23:33;8.80;;;4.40;;
38499;SDS011;24269;51.894;4.622;2022-11-12T12:26:20;8.65;;;4.60;;
38499;SDS011;24269;51.894;4.622;2022-11-12T12:29:07;8.70;;;4.32;;
38499;SDS011;24269;51.894;4.622;2022-11-12T12:31:57;7.35;;;4.20;;
38499;SDS011;24269;51.894;4.622;2022-11-12T12:34:36;8.07;;;4.15;;
38499;SDS011;24269;51.894;4.622;2022-11-12T12:37:09;6.88;;;4.10;;
38499;SDS011;24269;51.894;4.622;2022-11-12T12:39:57;6.97;;;3.80;;
38499;SDS011;24269;51.894;4.622;2022-11-12T12:42:50;9.82;;;4.47;;
38499;SDS011;24269;51.894;4.622;2022-11-12T12:45:40;7.32;;;3.60;;
38499;SDS011;24269;51.894;4.622;2022-11-12T12:48:17;8.13;;;4.60;;
38499;SDS011;24269;51.894;4.622;2022-11-12T12:51:03;6.18;;;3.72;;
38499;SDS011;24269;51.894;4.622;2022-11-12T12:53:30;6.70;;;3.88;;
38499;SDS011;24269;51.894;4.622;2022-11-12T12:55:58;7.20;;;3.80;;
38499;SDS011;24269;51.894;4.622;2022-11-12T13:01:13;6.53;;;4.28;;
38499;SDS011;24269;51.894;4.622;2022-11-12T13:03:57;7.43;;;4.70;;
38499;SDS011;24269;51.894;4.622;2022-11-12T13:17:01;7.93;;;3.97;;
38499;SDS011;24269;51.894;4.622;2022-11-12T13:19:34;7.07;;;3.95;;
38499;SDS011;24269;51.894;4.622;2022-11-12T13:40:45;7.57;;;4.30;;
38499;SDS011;24269;51.894;4.622;2022-11-12T13:45:56;9.98;;;4.80;;
38499;SDS011;24269;51.894;4.622;2022-11-12T13:48:28;8.88;;;4.60;;
38499;SDS011;24269;51.894;4.622;2022-11-12T13:51:00;8.10;;;4.55;;
38499;SDS011;24269;51.894;4.622;2022-11-12T13:53:30;7.32;;;4.18;;
38499;SDS011;24269;51.894;4.622;2022-11-12T13:55:56;7.45;;;4.45;;
38499;SDS011;24269;51.894;4.622;2022-11-12T14:01:10;8.35;;;4.50;;
38499;SDS011;24269;51.894;4.622;2022-11-12T14:03:44;8.00;;;4.55;;
38499;SDS011;24269;51.894;4.622;2022-11-12T14:06:14;9.55;;;4.07;;
38499;SDS011;24269;51.894;4.622;2022-11-12T14:09:02;7.07;;;4.35;;
38499;SDS011;24269;51.894;4.622;2022-11-12T14:12:09;7.40;;;4.15;;
38499;SDS011;24269;51.894;4.622;2022-11-12T14:15:46;6.75;;;3.95;;
38499;SDS011;24269;51.894;4.622;2022-11-12T14:18:06;6.32;;;3.67;;
38499;SDS011;24269;51.894;4.622;2022-11-12T14:20:38;7.10;;;3.47;;
38499;SDS011;24269;51.894;4.622;2022-11-12T14:23:12;5.97;;;3.70;;
38499;SDS011;24269;51.894;4.622;2022-11-12T14:26:12;7.28;;;4.13;;
38499;SDS011;24269;51.894;4.622;2022-11-12T14:31:01;6.28;;;3.50;;
38499;SDS011;24269;51.894;4.622;2022-11-12T14:33:28;9.13;;;3.85;;
38499;SDS011;24269;51.894;4.622;2022-11-12T14:35:59;6.55;;;3.67;;
38499;SDS011;24269;51.894;4.622;2022-11-12T14:38:31;7.80;;;3.90;;
38499;SDS011;24269;51.894;4.622;2022-11-12T14:41:02;7.43;;;4.00;;
38499;SDS011;24269;51.894;4.622;2022-11-12T14:43:34;7.07;;;4.28;;
38499;SDS011;24269;51.894;4.622;2022-11-12T14:48:50;10.07;;;4.63;;
38499;SDS011;24269;51.894;4.622;2022-11-12T14:51:19;8.00;;;4.38;;
38499;SDS011;24269;51.894;4.622;2022-11-12T14:53:47;14.38;;;5.97;;
38499;SDS011;24269;51.894;4.622;2022-11-12T14:56:42;10.43;;;5.25;;
38499;SDS011;24269;51.894;4.622;2022-11-12T14:59:11;13.48;;;6.05;;
38499;SDS011;24269;51.894;4.622;2022-11-12T15:01:39;11.93;;;5.60;;
38499;SDS011;24269;51.894;4.622;2022-11-12T15:04:33;10.48;;;5.38;;
38499;SDS011;24269;51.894;4.622;2022-11-12T15:07:01;15.38;;;6.65;;
38499;SDS011;24269;51.894;4.622;2022-11-12T15:09:32;13.98;;;6.90;;
38499;SDS011;24269;51.894;4.622;2022-11-12T15:11:59;14.95;;;7.20;;
38499;SDS011;24269;51.894;4.622;2022-11-12T15:14:27;17.40;;;7.22;;
38499;SDS011;24269;51.894;4.622;2022-11-12T15:16:53;12.65;;;6.82;;
38499;SDS011;24269;51.894;4.622;2022-11-12T15:21:56;13.10;;;7.13;;
38499;SDS011;24269;51.894;4.622;2022-11-12T15:24:35;11.95;;;6.60;;
38499;SDS011;24269;51.894;4.622;2022-11-12T15:32:41;12.50;;;7.03;;
38499;SDS011;24269;51.894;4.622;2022-11-12T15:37:54;11.05;;;6.45;;
38499;SDS011;24269;51.894;4.622;2022-11-12T15:40:20;11.98;;;6.78;;
38499;SDS011;24269;51.894;4.622;2022-11-12T15:42:46;10.07;;;6.07;;
38499;SDS011;24269;51.894;4.622;2022-11-12T15:45:19;10.43;;;5.85;;
38499;SDS011;24269;51.894;4.622;2022-11-12T15:47:45;11.77;;;5.57;;
38499;SDS011;24269;51.894;4.622;2022-11-12T15:52:38;9.93;;;6.00;;
38499;SDS011;24269;51.894;4.622;2022-11-12T15:55:04;14.23;;;6.55;;
38499;SDS011;24269;51.894;4.622;2022-11-12T15:57:31;9.90;;;5.97;;
38499;SDS011;24269;51.894;4.622;2022-11-12T16:00:00;10.82;;;5.88;;
38499;SDS011;24269;51.894;4.622;2022-11-12T16:02:29;13.05;;;6.85;;
38499;SDS011;24269;51.894;4.622;2022-11-12T16:04:55;12.05;;;6.07;;
38499;SDS011;24269;51.894;4.622;2022-11-12T16:07:21;12.20;;;7.50;;
38499;SDS011;24269;51.894;4.622;2022-11-12T16:09:47;14.18;;;6.97;;
38499;SDS011;24269;51.894;4.622;2022-11-12T16:12:13;11.73;;;7.30;;
38499;SDS011;24269;51.894;4.622;2022-11-12T16:14:39;14.32;;;7.35;;
38499;SDS011;24269;51.894;4.622;2022-11-12T16:17:07;12.30;;;7.50;;
38499;SDS011;24269;51.894;4.622;2022-11-12T16:19:36;14.00;;;7.75;;
38499;SDS011;24269;51.894;4.622;2022-11-12T16:22:01;15.93;;;8.13;;
38499;SDS011;24269;51.894;4.622;2022-11-12T16:24:27;14.40;;;7.90;;
38499;SDS011;24269;51.894;4.622;2022-11-12T16:26:53;13.38;;;7.85;;
38499;SDS011;24269;51.894;4.622;2022-11-12T16:29:19;13.80;;;7.88;;
38499;SDS011;24269;51.894;4.622;2022-11-12T16:31:45;14.57;;;8.52;;
38499;SDS011;24269;51.894;4.622;2022-11-12T16:34:10;13.35;;;8.38;;
38499;SDS011;24269;51.894;4.622;2022-11-12T16:36:37;15.27;;;8.65;;
38499;SDS011;24269;51.894;4.622;2022-11-12T16:39:03;14.73;;;8.95;;
38499;SDS011;24269;51.894;4.622;2022-11-12T16:41:29;15.48;;;8.85;;
38499;SDS011;24269;51.894;4.622;2022-11-12T16:43:54;14.98;;;8.75;;
38499;SDS011;24269;51.894;4.622;2022-11-12T16:46:22;15.65;;;9.88;;
38499;SDS011;24269;51.894;4.622;2022-11-12T16:48:52;15.50;;;8.95;;
38499;SDS011;24269;51.894;4.622;2022-11-12T16:51:18;13.75;;;9.23;;
38499;SDS011;24269;51.894;4.622;2022-11-12T16:53:45;17.33;;;9.05;;
38499;SDS011;24269;51.894;4.622;2022-11-12T16:56:20;16.83;;;9.18;;
38499;SDS011;24269;51.894;4.622;2022-11-12T16:58:47;13.00;;;8.20;;